Time;durP1;ratioP1;P1;durP2;ratioP2;P2;SDS_P1;SDS_P2;PMS_P1;PMS_P2;Temp;Humidity;BMP_temperature;BMP_pressure;BME280_temperature;BME280_humidity;BME280_pressure;Samples;Min_cycle;Max_cycle;Signal;HPM_P1;HPM_P2
2022/01/10 00:00:48;;;;;;;1.60;1.33;;;8.50;99.90;;;;;;5032728;28;20021;-78
2022/01/10 00:03:15;;;;;;;1.38;1.25;;;8.60;99.90;;;;;;5033672;28;20026;-78
2022/01/10 00:05:40;;;;;;;1.67;0.90;;;8.50;99.90;;;;;;5032072;28;20058;-78
2022/01/10 00:08:06;;;;;;;2.03;1.35;;;8.60;99.90;;;;;;5032261;28;20449;-77
2022/01/10 00:10:33;;;;;;;0.93;0.90;;;8.50;99.90;;;;;;5030983;28;20407;-78
2022/01/10 00:12:59;;;;;;;0.75;0.68;;;8.60;99.90;;;;;;5032486;28;20104;-77
2022/01/10 00:15:25;;;;;;;0.90;0.90;;;8.60;99.90;;;;;;5033171;28;20029;-77
2022/01/10 00:17:50;;;;;;;1.02;0.77;;;8.60;99.90;;;;;;5032732;28;20037;-77
2022/01/10 00:20:19;;;;;;;1.73;1.20;;;8.70;99.90;;;;;;5031922;28;20017;-77
2022/01/10 00:22:48;;;;;;;1.05;0.95;;;8.60;99.90;;;;;;5026636;28;20034;-77
2022/01/10 00:25:17;;;;;;;2.17;1.23;;;8.70;99.90;;;;;;5032104;28;20112;-78
2022/01/10 00:27:44;;;;;;;2.00;1.50;;;8.60;99.90;;;;;;5032249;28;20109;-77
2022/01/10 00:30:11;;;;;;;1.98;1.42;;;8.60;99.90;;;;;;5033449;28;20024;-78
2022/01/10 00:32:42;;;;;;;2.65;1.35;;;8.60;99.90;;;;;;5026619;28;20570;-77
2022/01/10 00:35:09;;;;;;;2.03;1.70;;;8.60;99.90;;;;;;5030263;28;20025;-78
2022/01/10 00:37:35;;;;;;;1.92;1.40;;;8.60;99.90;;;;;;5028232;28;20064;-77
2022/01/10 00:40:03;;;;;;;1.40;1.30;;;8.70;99.90;;;;;;5031479;28;20514;-77
2022/01/10 00:42:30;;;;;;;1.25;1.13;;;8.60;99.90;;;;;;5032581;28;20026;-77
2022/01/10 00:45:00;;;;;;;2.47;1.27;;;8.60;99.90;;;;;;5032380;28;20021;-77
2022/01/10 00:47:25;;;;;;;1.38;1.23;;;8.60;99.90;;;;;;5029939;28;20021;-78
2022/01/10 00:49:51;;;;;;;1.92;1.38;;;8.70;99.90;;;;;;5029438;28;20379;-77
2022/01/10 00:52:17;;;;;;;2.22;1.75;;;8.60;99.90;;;;;;5030414;28;20541;-77
2022/01/10 00:54:43;;;;;;;1.65;1.48;;;8.60;99.90;;;;;;5030230;28;20045;-77
2022/01/10 00:57:09;;;;;;;2.35;2.10;;;8.60;99.90;;;;;;5033069;28;20089;-77
2022/01/10 00:59:34;;;;;;;2.97;1.85;;;8.70;99.90;;;;;;5025631;28;20029;-77
2022/01/10 01:02:01;;;;;;;2.20;1.88;;;8.60;99.90;;;;;;5031238;28;20101;-77
2022/01/10 01:04:27;;;;;;;2.42;1.67;;;8.60;99.90;;;;;;5029552;28;20083;-78
2022/01/10 01:06:53;;;;;;;2.97;2.22;;;8.60;99.90;;;;;;5030217;28;20034;-77
2022/01/10 01:09:24;;;;;;;2.58;1.85;;;8.60;99.90;;;;;;5026772;28;20088;-78
2022/01/10 01:17:15;;;;;;;1.88;1.58;;;8.60;99.90;;;;;;5030585;28;20032;-78
2022/01/10 01:25:11;;;;;;;1.50;1.25;;;8.60;99.90;;;;;;5018269;28;20068;-78
2022/01/10 01:27:38;;;;;;;1.98;1.48;;;8.60;99.90;;;;;;5030968;28;20037;-78
2022/01/10 01:30:06;;;;;;;1.60;1.40;;;8.60;99.90;;;;;;5032482;28;20013;-78
2022/01/10 01:32:32;;;;;;;1.95;1.55;;;8.50;99.90;;;;;;5030860;28;20116;-78
2022/01/10 01:35:04;;;;;;;1.42;1.20;;;8.50;99.90;;;;;;5030747;28;20096;-78
2022/01/10 01:37:30;;;;;;;1.08;0.98;;;8.50;99.90;;;;;;5030428;28;20036;-78
2022/01/10 01:39:56;;;;;;;1.10;0.90;;;8.50;99.90;;;;;;5030254;28;20041;-78
2022/01/10 01:42:41;;;;;;;1.65;1.05;;;8.40;99.90;;;;;;5030852;28;20033;-78
2022/01/10 01:45:09;;;;;;;1.52;0.85;;;8.40;99.90;;;;;;5030393;28;20025;-78
2022/01/10 01:47:34;;;;;;;1.73;1.15;;;8.50;99.90;;;;;;5029796;28;20155;-78
2022/01/10 01:50:00;;;;;;;0.95;0.80;;;8.40;99.90;;;;;;5028795;28;20108;-78
2022/01/10 01:52:27;;;;;;;1.23;0.95;;;8.40;99.90;;;;;;5030273;28;20045;-78
2022/01/10 01:54:53;;;;;;;1.23;0.60;;;8.40;99.90;;;;;;5028432;28;20024;-78
2022/01/10 01:57:19;;;;;;;0.90;0.60;;;8.40;99.90;;;;;;5031942;28;20104;-78
2022/01/10 01:59:46;;;;;;;0.60;0.60;;;8.30;99.90;;;;;;5028573;28;20109;-78
2022/01/10 02:02:12;;;;;;;0.43;0.43;;;8.30;99.90;;;;;;5030366;28;20052;-79
2022/01/10 02:04:37;;;;;;;0.50;0.50;;;8.30;99.90;;;;;;5024408;28;20029;-78
2022/01/10 02:07:03;;;;;;;0.52;0.52;;;8.40;99.90;;;;;;5029977;28;20029;-78
2022/01/10 02:09:30;;;;;;;3.22;1.00;;;8.30;99.90;;;;;;5030606;28;20033;-78
2022/01/10 02:11:56;;;;;;;0.52;0.52;;;8.30;99.90;;;;;;5030288;28;20032;-78
2022/01/10 02:14:22;;;;;;;0.40;0.40;;;8.40;99.90;;;;;;5029627;28;20026;-78
2022/01/10 02:16:56;;;;;;;0.30;0.30;;;8.40;99.90;;;;;;5029904;28;20048;-77
2022/01/10 02:19:23;;;;;;;0.45;0.30;;;8.40;99.90;;;;;;5029757;28;20013;-78
2022/01/10 02:21:49;;;;;;;0.25;0.25;;;8.40;99.90;;;;;;5030626;28;20032;-78
2022/01/10 02:24:15;;;;;;;0.30;0.30;;;8.40;99.90;;;;;;5031390;28;20117;-78
2022/01/10 02:26:45;;;;;;;0.30;0.30;;;8.50;99.90;;;;;;5029764;28;20262;-78
2022/01/10 02:29:11;;;;;;;0.20;0.20;;;8.50;99.90;;;;;;5025686;28;20013;-78
2022/01/10 02:31:39;;;;;;;0.20;0.20;;;8.40;99.90;;;;;;5028088;28;20490;-78
2022/01/10 02:34:06;;;;;;;0.20;0.20;;;8.40;99.90;;;;;;5029569;28;20021;-79
2022/01/10 02:36:32;;;;;;;0.40;0.40;;;8.40;99.90;;;;;;5028880;28;20025;-79
2022/01/10 02:39:04;;;;;;;0.38;0.38;;;8.40;99.90;;;;;;5030677;28;20037;-78
2022/01/10 02:41:31;;;;;;;;;;;8.40;99.90;;;;;;5024035;28;20068;-78
2022/01/10 02:43:58;;;;;;;0.40;0.40;;;8.40;99.90;;;;;;5029520;28;19916;-78
2022/01/10 02:46:25;;;;;;;0.30;0.30;;;8.40;99.90;;;;;;5028547;28;20510;-78
2022/01/10 02:48:51;;;;;;;0.32;0.32;;;8.30;99.90;;;;;;5027460;28;20116;-78
2022/01/10 02:51:17;;;;;;;1.08;0.93;;;8.30;99.90;;;;;;5028078;28;20431;-78
2022/01/10 02:53:43;;;;;;;1.38;0.82;;;8.30;99.90;;;;;;5029635;28;20037;-78
2022/01/10 02:56:09;;;;;;;0.95;0.90;;;8.20;99.90;;;;;;5027115;28;20029;-78
2022/01/10 02:58:35;;;;;;;1.83;0.90;;;8.30;99.90;;;;;;5028699;28;20033;-78
2022/01/10 03:01:02;;;;;;;1.40;0.80;;;8.30;99.90;;;;;;5028682;28;20028;-78
2022/01/10 03:03:30;;;;;;;1.23;0.82;;;8.30;99.90;;;;;;5029427;28;20036;-78
2022/01/10 03:05:56;;;;;;;1.20;0.73;;;8.30;99.90;;;;;;5027388;28;20025;-78
2022/01/10 03:08:23;;;;;;;1.55;0.98;;;8.40;99.90;;;;;;5023023;28;20522;-78
2022/01/10 03:10:49;;;;;;;0.90;0.60;;;8.40;99.90;;;;;;5028843;28;20120;-79
2022/01/10 03:13:15;;;;;;;0.63;0.63;;;8.30;99.90;;;;;;5029328;28;20108;-78
2022/01/10 03:15:41;;;;;;;0.68;0.65;;;8.30;99.90;;;;;;5029696;28;20498;-78
2022/01/10 03:18:06;;;;;;;0.55;0.50;;;8.30;99.90;;;;;;5030516;28;20096;-78
2022/01/10 03:20:32;;;;;;;0.60;0.55;;;8.30;99.90;;;;;;5023325;28;20017;-78
2022/01/10 03:22:57;;;;;;;0.50;0.50;;;8.40;99.90;;;;;;5027396;28;20038;-78
2022/01/10 03:25:23;;;;;;;0.55;0.50;;;8.30;99.90;;;;;;5029146;28;20383;-78
2022/01/10 03:27:49;;;;;;;0.55;0.40;;;8.30;99.90;;;;;;5029448;28;20037;-78
2022/01/10 03:30:15;;;;;;;0.57;0.43;;;8.80;99.90;;;;;;5028887;28;20576;-79
2022/01/10 03:32:42;;;;;;;2.50;0.38;;;10.20;99.90;;;;;;5027884;28;20060;-78
2022/01/10 03:35:08;;;;;;;0.30;0.30;;;10.60;99.90;;;;;;5020349;28;20029;-78
2022/01/10 03:37:34;;;;;;;0.30;0.30;;;10.90;99.90;;;;;;5028611;28;20033;-78
2022/01/10 03:40:00;;;;;;;0.60;0.60;;;10.90;99.90;;;;;;5028812;28;20112;-78
2022/01/10 03:42:25;;;;;;;0.20;0.20;;;11.00;99.90;;;;;;5028284;28;20628;-79
2022/01/10 03:44:51;;;;;;;0.30;0.30;;;11.10;99.90;;;;;;5027617;28;20014;-79
2022/01/10 03:47:18;;;;;;;0.38;0.38;;;11.10;99.90;;;;;;5025192;28;20075;-79
2022/01/10 03:49:44;;;;;;;0.30;0.30;;;11.20;99.90;;;;;;5028898;28;20105;-78
2022/01/10 03:52:10;;;;;;;0.20;0.20;;;11.30;99.90;;;;;;5028565;28;20022;-78
2022/01/10 03:54:37;;;;;;;0.30;0.30;;;11.30;99.90;;;;;;5028699;28;20050;-79
2022/01/10 03:57:03;;;;;;;0.20;0.20;;;11.30;99.90;;;;;;5030052;28;20413;-79
2022/01/10 03:59:29;;;;;;;0.38;0.20;;;11.30;99.90;;;;;;5028113;28;20049;-79
2022/01/10 04:01:55;;;;;;;0.73;0.20;;;11.40;99.90;;;;;;5028839;28;20493;-78
2022/01/10 04:04:21;;;;;;;0.10;0.10;;;11.40;99.90;;;;;;5029226;28;20036;-78
2022/01/10 04:06:46;;;;;;;0.20;0.20;;;11.40;99.90;;;;;;5028569;28;21019;-78
2022/01/10 04:09:12;;;;;;;0.20;0.20;;;11.40;99.90;;;;;;5030377;28;20494;-79
2022/01/10 04:11:38;;;;;;;0.63;0.20;;;11.40;99.90;;;;;;5031243;28;20052;-78
2022/01/10 04:14:04;;;;;;;0.25;0.25;;;11.50;99.90;;;;;;5032244;28;20033;-79
2022/01/10 04:16:30;;;;;;;0.10;0.10;;;11.50;99.90;;;;;;5032562;28;20035;-79
2022/01/10 04:18:55;;;;;;;0.10;0.10;;;11.40;99.90;;;;;;5030878;28;20494;-78
2022/01/10 04:21:21;;;;;;;0.17;0.17;;;11.50;99.90;;;;;;5033742;28;20030;-78
2022/01/10 04:23:47;;;;;;;0.20;0.20;;;11.40;99.90;;;;;;5025664;28;20132;-79
2022/01/10 04:26:13;;;;;;;0.20;0.20;;;11.30;99.90;;;;;;5024328;28;20021;-79
2022/01/10 04:28:38;;;;;;;0.38;0.35;;;11.30;99.90;;;;;;5031294;28;20037;-79
2022/01/10 04:31:04;;;;;;;0.20;0.20;;;11.30;99.90;;;;;;5031028;28;20505;-78
2022/01/10 04:33:30;;;;;;;0.28;0.17;;;11.40;99.90;;;;;;5031752;28;20095;-79
2022/01/10 04:35:57;;;;;;;0.20;0.20;;;11.30;99.90;;;;;;5032764;28;20069;-79
2022/01/10 04:38:24;;;;;;;0.20;0.20;;;11.30;99.90;;;;;;5025781;28;20029;-79
2022/01/10 04:40:50;;;;;;;0.22;0.22;;;11.30;99.90;;;;;;5030225;28;20037;-79
2022/01/10 04:43:16;;;;;;;0.30;0.30;;;11.30;99.90;;;;;;5030955;28;20124;-79
2022/01/10 04:45:42;;;;;;;0.75;0.75;;;11.20;99.90;;;;;;5030861;28;20026;-78
2022/01/10 04:48:09;;;;;;;0.60;0.60;;;10.50;99.90;;;;;;5027533;28;20518;-79
2022/01/10 04:53:01;;;;;;;1.13;1.00;;;10.10;99.90;;;;;;5030337;28;20037;-79
2022/01/10 04:55:27;;;;;;;0.98;0.98;;;10.00;99.90;;;;;;5031023;28;20029;-79
2022/01/10 04:57:52;;;;;;;2.40;1.10;;;10.00;99.90;;;;;;5030284;28;20029;-79
2022/01/10 05:00:18;;;;;;;1.73;1.63;;;10.00;99.90;;;;;;5032508;28;20483;-79
2022/01/10 05:02:47;;;;;;;1.80;1.70;;;9.80;99.90;;;;;;5030205;28;20033;-79
2022/01/10 05:05:13;;;;;;;1.70;1.48;;;9.70;99.90;;;;;;5030344;28;20052;-79
2022/01/10 05:07:39;;;;;;;1.92;1.35;;;9.60;99.90;;;;;;5030148;28;20511;-78
2022/01/10 05:10:05;;;;;;;1.30;1.20;;;9.40;99.90;;;;;;5030350;28;20526;-79
2022/01/10 05:12:30;;;;;;;1.20;1.10;;;9.30;99.90;;;;;;5031435;28;20018;-79
2022/01/10 05:14:56;;;;;;;0.85;0.82;;;9.10;99.90;;;;;;5025991;28;20403;-79
2022/01/10 05:17:24;;;;;;;1.50;0.80;;;9.00;99.90;;;;;;5029074;28;20100;-78
2022/01/10 05:19:50;;;;;;;0.50;0.50;;;8.80;99.90;;;;;;5024766;28;20036;-79
2022/01/10 05:22:16;;;;;;;1.20;0.95;;;8.90;99.90;;;;;;5029765;28;20026;-79
2022/01/10 05:24:41;;;;;;;0.50;0.50;;;8.80;99.90;;;;;;5030373;28;20064;-79
2022/01/10 05:27:07;;;;;;;0.30;0.30;;;8.70;99.90;;;;;;5032380;28;20025;-80
2022/01/10 05:29:33;;;;;;;0.40;0.40;;;8.60;99.90;;;;;;5029902;28;20030;-80
2022/01/10 05:31:59;;;;;;;0.30;0.30;;;8.60;99.90;;;;;;5030037;28;20013;-80
2022/01/10 05:34:24;;;;;;;0.30;0.30;;;8.60;99.90;;;;;;5030200;28;20059;-79
2022/01/10 05:36:50;;;;;;;0.35;0.35;;;8.60;99.90;;;;;;5029007;28;20125;-80
2022/01/10 05:39:16;;;;;;;0.50;0.40;;;8.60;99.90;;;;;;5031617;28;20096;-80
2022/01/10 05:41:43;;;;;;;0.22;0.22;;;8.50;99.90;;;;;;5027876;28;20268;-80
2022/01/10 05:44:09;;;;;;;0.30;0.30;;;8.50;99.90;;;;;;5023563;28;20498;-80
2022/01/10 05:46:37;;;;;;;0.40;0.40;;;8.40;99.90;;;;;;5028350;28;20030;-80
2022/01/10 05:49:04;;;;;;;0.38;0.38;;;8.40;99.90;;;;;;5030433;28;20044;-80
2022/01/10 05:51:34;;;;;;;0.30;0.30;;;8.40;99.90;;;;;;5030801;28;20502;-80
2022/01/10 05:54:02;;;;;;;0.40;0.30;;;8.40;99.90;;;;;;5030849;28;20033;-80
2022/01/10 05:56:27;;;;;;;0.20;0.20;;;8.40;99.90;;;;;;5029907;28;20280;-80
2022/01/10 05:58:53;;;;;;;0.43;0.40;;;8.30;99.90;;;;;;5029469;28;20509;-80
2022/01/10 06:01:19;;;;;;;0.15;0.15;;;8.30;99.90;;;;;;5029746;28;20096;-80
2022/01/10 06:03:45;;;;;;;0.25;0.25;;;8.30;99.90;;;;;;5028367;28;20045;-80
2022/01/10 06:06:11;;;;;;;0.30;0.30;;;8.30;99.90;;;;;;5029432;28;20091;-80
2022/01/10 06:08:37;;;;;;;0.30;0.30;;;8.40;99.90;;;;;;5029787;28;20057;-80
2022/01/10 06:11:02;;;;;;;0.30;0.30;;;8.30;99.90;;;;;;5023445;28;20056;-80
2022/01/10 06:13:28;;;;;;;0.30;0.30;;;8.30;99.90;;;;;;5029088;28;20035;-79
2022/01/10 06:15:54;;;;;;;0.30;0.30;;;8.30;99.90;;;;;;5028498;28;20119;-79
2022/01/10 06:18:19;;;;;;;0.30;0.30;;;8.30;99.90;;;;;;5031023;28;20309;-79
2022/01/10 06:20:45;;;;;;;0.30;0.30;;;8.30;99.90;;;;;;5028806;28;20029;-80
2022/01/10 06:23:11;;;;;;;0.25;0.25;;;8.30;99.90;;;;;;5029151;28;20025;-80
2022/01/10 06:25:39;;;;;;;0.40;0.40;;;8.30;99.90;;;;;;5029073;28;20079;-79
2022/01/10 06:28:05;;;;;;;0.40;0.40;;;8.30;99.90;;;;;;5027439;28;20036;-79
2022/01/10 06:30:31;;;;;;;0.40;0.40;;;8.30;99.90;;;;;;5028983;28;20026;-79
2022/01/10 06:32:57;;;;;;;0.30;0.30;;;8.30;99.90;;;;;;5023943;28;20487;-79
2022/01/10 06:35:23;;;;;;;0.30;0.30;;;8.20;99.90;;;;;;5028813;28;20072;-79
2022/01/10 06:37:49;;;;;;;0.40;0.40;;;8.40;99.90;;;;;;5028975;28;20029;-80
2022/01/10 06:40:15;;;;;;;0.40;0.40;;;8.20;99.90;;;;;;5028556;28;20128;-80
2022/01/10 06:42:41;;;;;;;0.45;0.45;;;8.10;99.90;;;;;;5028462;28;20053;-80
2022/01/10 06:45:08;;;;;;;0.88;0.50;;;8.10;99.90;;;;;;5030833;28;20057;-80
2022/01/10 06:47:34;;;;;;;0.60;0.60;;;8.20;99.90;;;;;;5028998;28;20040;-80
2022/01/10 06:50:00;;;;;;;0.70;0.70;;;8.20;99.90;;;;;;5023194;28;20022;-80
2022/01/10 06:52:26;;;;;;;0.80;0.80;;;8.10;99.90;;;;;;5023932;28;20026;-80
2022/01/10 06:54:52;;;;;;;0.88;0.88;;;8.10;99.90;;;;;;5027117;28;20029;-80
2022/01/10 06:57:17;;;;;;;0.90;0.90;;;8.10;99.90;;;;;;5030808;28;20479;-79
2022/01/10 06:59:43;;;;;;;1.10;1.00;;;8.10;99.90;;;;;;5028425;28;20079;-80
2022/01/10 07:02:09;;;;;;;1.98;1.13;;;8.10;99.90;;;;;;5028578;28;20071;-79
2022/01/10 07:04:34;;;;;;;1.20;1.00;;;8.10;99.90;;;;;;5028462;28;20100;-79
2022/01/10 07:07:00;;;;;;;1.40;1.30;;;8.10;99.90;;;;;;5028753;28;20502;-79
2022/01/10 07:09:26;;;;;;;1.23;1.17;;;8.10;99.90;;;;;;5028000;28;20044;-79
2022/01/10 07:11:52;;;;;;;1.92;1.08;;;8.10;99.90;;;;;;5029464;28;20123;-79
2022/01/10 07:14:18;;;;;;;0.65;0.65;;;8.10;99.90;;;;;;5028041;28;20059;-79
2022/01/10 07:16:43;;;;;;;1.45;1.02;;;8.10;99.90;;;;;;5028466;28;20514;-79
2022/01/10 07:19:09;;;;;;;1.75;1.00;;;8.10;99.90;;;;;;5028783;28;20190;-79
2022/01/10 07:21:40;;;;;;;1.02;0.90;;;8.00;99.90;;;;;;5027499;28;20050;-79
2022/01/10 07:24:06;;;;;;;0.70;0.65;;;8.10;99.90;;;;;;5027802;28;20112;-79
2022/01/10 07:26:33;;;;;;;0.68;0.68;;;8.10;99.90;;;;;;5028177;28;20029;-79
2022/01/10 07:29:00;;;;;;;0.73;0.63;;;8.10;99.90;;;;;;5022685;28;20103;-79
2022/01/10 07:31:26;;;;;;;0.88;0.70;;;8.10;99.90;;;;;;5028516;28;20110;-79
2022/01/10 07:33:52;;;;;;;0.63;0.63;;;8.00;99.90;;;;;;5027479;28;20041;-79
2022/01/10 07:36:18;;;;;;;0.98;0.90;;;8.00;99.90;;;;;;5024474;28;20041;-79
2022/01/10 07:38:43;;;;;;;1.23;0.80;;;8.00;99.90;;;;;;5022109;28;20041;-78
2022/01/10 07:41:09;;;;;;;1.42;1.00;;;8.00;99.90;;;;;;5022667;28;20029;-80
2022/01/10 07:43:35;;;;;;;2.78;1.40;;;8.10;99.90;;;;;;5022424;28;20558;-78
2022/01/10 07:46:02;;;;;;;1.92;1.20;;;8.10;99.90;;;;;;5028594;28;20053;-78
2022/01/10 07:48:30;;;;;;;1.88;1.70;;;8.00;99.90;;;;;;5032505;28;20342;-78
2022/01/10 07:50:56;;;;;;;2.28;2.08;;;8.00;99.90;;;;;;5033291;28;20044;-78
2022/01/10 07:53:22;;;;;;;2.85;2.47;;;8.00;99.90;;;;;;5025816;28;20495;-78
2022/01/10 07:55:48;;;;;;;2.38;2.17;;;8.00;99.90;;;;;;5031855;28;20034;-78
2022/01/10 07:58:14;;;;;;;2.33;2.13;;;8.10;99.90;;;;;;5030489;28;20033;-78
2022/01/10 08:00:40;;;;;;;2.20;2.00;;;8.10;99.90;;;;;;5031757;28;20139;-78
2022/01/10 08:03:06;;;;;;;2.13;1.88;;;8.10;99.90;;;;;;5026374;28;20052;-78
2022/01/10 08:05:32;;;;;;;2.35;2.15;;;8.00;99.90;;;;;;5031655;28;20026;-78
2022/01/10 08:07:58;;;;;;;3.65;2.08;;;8.10;99.90;;;;;;5029611;28;20021;-78
2022/01/10 08:10:23;;;;;;;1.70;1.60;;;8.10;99.90;;;;;;5031432;28;20025;-78
2022/01/10 08:12:49;;;;;;;2.10;1.90;;;8.10;99.90;;;;;;5029707;28;20025;-78
2022/01/10 08:15:15;;;;;;;2.20;2.00;;;8.20;99.90;;;;;;5031889;28;20053;-79
2022/01/10 08:17:42;;;;;;;2.83;2.60;;;8.20;99.90;;;;;;5030496;28;20678;-79
2022/01/10 08:20:09;;;;;;;2.72;2.50;;;8.10;99.90;;;;;;5030050;28;20025;-78
2022/01/10 08:22:35;;;;;;;3.00;2.60;;;8.10;99.90;;;;;;5028125;28;20690;-78
2022/01/10 08:25:02;;;;;;;2.95;2.53;;;8.10;99.90;;;;;;5025128;28;20223;-79
2022/01/10 08:27:28;;;;;;;2.67;2.45;;;8.10;99.90;;;;;;5029956;28;20026;-79
2022/01/10 08:29:53;;;;;;;2.70;2.50;;;8.10;99.90;;;;;;5030866;28;20028;-78
2022/01/10 08:32:19;;;;;;;3.13;2.83;;;8.20;99.90;;;;;;5029591;28;20457;-78
2022/01/10 08:34:45;;;;;;;2.88;2.65;;;8.20;99.90;;;;;;5025031;28;20509;-78
2022/01/10 08:37:11;;;;;;;3.80;2.90;;;8.20;99.90;;;;;;5028304;28;20055;-78
2022/01/10 08:39:37;;;;;;;3.22;2.30;;;8.20;99.90;;;;;;5030035;28;20085;-78
2022/01/10 08:42:03;;;;;;;2.30;2.10;;;8.10;99.90;;;;;;5031394;28;20064;-78
2022/01/10 08:44:29;;;;;;;2.03;1.73;;;8.10;99.90;;;;;;5029929;28;20539;-78
2022/01/10 08:46:54;;;;;;;1.10;1.10;;;8.10;99.90;;;;;;5029513;28;20462;-78
2022/01/10 08:49:20;;;;;;;1.73;1.25;;;8.10;99.90;;;;;;5029542;28;20052;-78
2022/01/10 08:51:46;;;;;;;1.40;1.30;;;8.10;99.90;;;;;;5028097;28;20043;-78
2022/01/10 08:54:12;;;;;;;1.35;1.25;;;8.10;99.90;;;;;;5030815;28;20063;-78
2022/01/10 08:56:39;;;;;;;1.02;1.00;;;8.00;99.90;;;;;;5028393;28;20083;-78
2022/01/10 08:59:05;;;;;;;1.23;1.10;;;8.00;99.90;;;;;;5029045;28;20031;-78
2022/01/10 09:01:32;;;;;;;1.02;0.90;;;8.00;99.90;;;;;;5027840;28;20068;-77
2022/01/10 09:03:59;;;;;;;0.80;0.80;;;8.00;99.90;;;;;;5028048;28;20030;-78
2022/01/10 09:06:24;;;;;;;1.02;0.90;;;8.00;99.90;;;;;;5029758;28;20028;-78
2022/01/10 09:08:51;;;;;;;0.80;0.80;;;8.00;99.90;;;;;;5029428;28;20033;-78
2022/01/10 09:11:17;;;;;;;1.98;0.77;;;8.00;99.90;;;;;;5028817;28;20071;-78
2022/01/10 09:13:43;;;;;;;0.98;0.90;;;8.00;99.90;;;;;;5028485;28;20037;-78
2022/01/10 09:16:11;;;;;;;0.57;0.55;;;7.90;99.90;;;;;;5029241;28;20028;-79
2022/01/10 09:18:37;;;;;;;2.15;1.10;;;7.90;99.90;;;;;;5025847;28;20083;-79
2022/01/10 09:21:03;;;;;;;0.82;0.60;;;8.00;99.90;;;;;;5029898;28;20034;-78
2022/01/10 09:23:29;;;;;;;0.55;0.55;;;7.90;99.90;;;;;;5028855;28;20035;-78
2022/01/10 09:25:55;;;;;;;0.80;0.80;;;8.00;99.90;;;;;;5027945;28;20018;-78
2022/01/10 09:28:21;;;;;;;2.33;1.00;;;8.00;99.90;;;;;;5024500;28;20048;-79
2022/01/10 09:30:48;;;;;;;1.40;1.15;;;7.90;99.90;;;;;;5026230;28;20032;-78
2022/01/10 09:33:14;;;;;;;0.90;0.90;;;7.90;99.90;;;;;;5030836;28;20022;-78
2022/01/10 09:35:42;;;;;;;1.00;0.90;;;7.90;99.90;;;;;;5021885;28;20037;-78
2022/01/10 09:38:09;;;;;;;1.40;1.05;;;7.90;99.90;;;;;;5029072;28;20025;-78
2022/01/10 09:40:35;;;;;;;1.00;0.75;;;8.00;99.90;;;;;;5024592;28;20058;-78
2022/01/10 09:43:00;;;;;;;1.98;1.15;;;8.00;99.90;;;;;;5029278;28;20062;-78
2022/01/10 09:45:26;;;;;;;2.20;0.93;;;7.90;99.90;;;;;;5028806;28;20087;-79
2022/01/10 09:47:52;;;;;;;2.47;1.08;;;8.00;99.90;;;;;;5027790;28;20492;-78
2022/01/10 09:50:18;;;;;;;1.00;0.90;;;8.00;99.90;;;;;;5026587;28;20032;-78
2022/01/10 09:52:48;;;;;;;0.85;0.77;;;8.00;99.90;;;;;;5027555;28;20075;-78
2022/01/10 09:55:14;;;;;;;0.77;0.77;;;8.00;99.90;;;;;;5028586;28;20124;-79
2022/01/10 09:57:39;;;;;;;0.80;0.80;;;8.00;99.90;;;;;;5026600;28;20076;-79
2022/01/10 10:00:07;;;;;;;1.33;1.00;;;8.10;99.90;;;;;;5029875;28;20242;-78
2022/01/10 10:02:35;;;;;;;1.40;1.17;;;8.10;99.90;;;;;;5026609;28;20112;-78
2022/01/10 10:05:06;;;;;;;0.90;0.90;;;8.10;99.90;;;;;;5027694;28;20495;-79
2022/01/10 10:07:35;;;;;;;1.50;1.00;;;8.10;99.90;;;;;;5021665;28;20026;-78
2022/01/10 10:10:07;;;;;;;1.52;1.05;;;8.10;99.90;;;;;;5027852;28;20072;-79
2022/01/10 10:12:33;;;;;;;1.30;0.90;;;7.90;99.90;;;;;;5026937;28;20498;-79
2022/01/10 10:15:00;;;;;;;2.88;1.20;;;7.90;99.90;;;;;;5018550;28;20068;-79
2022/01/10 10:17:28;;;;;;;1.77;1.27;;;8.00;99.90;;;;;;5024144;28;20120;-78
2022/01/10 10:19:54;;;;;;;1.95;1.48;;;8.00;99.90;;;;;;5027045;28;20022;-78
2022/01/10 10:22:21;;;;;;;1.08;0.93;;;8.10;99.90;;;;;;5027204;28;20044;-78
2022/01/10 10:24:49;;;;;;;1.95;1.20;;;8.00;99.90;;;;;;5026226;28;20033;-78
2022/01/10 10:27:17;;;;;;;1.65;1.08;;;8.00;99.90;;;;;;5029476;28;20030;-78
2022/01/10 10:29:44;;;;;;;1.30;1.20;;;8.00;99.90;;;;;;5021819;28;20560;-78
2022/01/10 10:32:12;;;;;;;1.52;1.10;;;8.00;99.90;;;;;;5022836;28;20029;-77
2022/01/10 10:34:38;;;;;;;2.45;1.50;;;8.00;99.90;;;;;;5025892;28;20584;-78
2022/01/10 10:37:05;;;;;;;1.30;1.20;;;8.10;99.90;;;;;;5026596;28;20033;-78
2022/01/10 10:39:32;;;;;;;2.65;1.50;;;8.10;99.90;;;;;;5025344;28;20052;-78
2022/01/10 10:42:03;;;;;;;2.33;1.58;;;8.10;99.90;;;;;;5026229;28;20061;-77
2022/01/10 10:44:29;;;;;;;3.03;1.67;;;8.10;99.90;;;;;;5021476;28;20049;-78
2022/01/10 10:46:56;;;;;;;3.17;2.08;;;8.10;99.90;;;;;;5026542;28;20521;-78
2022/01/10 10:49:30;;;;;;;1.83;1.48;;;8.20;99.90;;;;;;5022817;28;20044;-78
2022/01/10 10:51:57;;;;;;;2.15;1.60;;;8.20;99.90;;;;;;5020477;28;20486;-78
2022/01/10 10:54:24;;;;;;;2.58;1.60;;;8.20;99.90;;;;;;5025224;28;20033;-78
2022/01/10 10:56:49;;;;;;;2.38;1.55;;;8.20;99.90;;;;;;5025256;28;20048;-78
2022/01/10 10:59:15;;;;;;;2.70;1.67;;;8.20;99.90;;;;;;5025787;28;20449;-78
2022/01/10 11:01:42;;;;;;;2.72;1.55;;;8.30;99.90;;;;;;5021108;28;20038;-77
2022/01/10 11:04:10;;;;;;;2.15;1.35;;;8.30;99.90;;;;;;5026937;28;20108;-78
2022/01/10 11:06:37;;;;;;;2.85;1.65;;;8.30;99.90;;;;;;5025842;28;20033;-79
2022/01/10 11:09:09;;;;;;;1.88;1.27;;;8.20;99.90;;;;;;5028256;28;20607;-78
2022/01/10 11:11:35;;;;;;;1.27;1.08;;;8.30;99.90;;;;;;5026225;28;20044;-78
2022/01/10 11:14:03;;;;;;;1.90;1.10;;;8.30;99.90;;;;;;5027592;28;20095;-78
2022/01/10 11:16:29;;;;;;;1.05;0.93;;;8.30;99.90;;;;;;5027068;28;20029;-78
2022/01/10 11:18:56;;;;;;;1.85;1.17;;;8.30;99.90;;;;;;5025263;28;20036;-78
2022/01/10 11:21:28;;;;;;;1.30;0.85;;;8.30;99.90;;;;;;5028029;28;20022;-79
2022/01/10 11:23:55;;;;;;;2.08;0.90;;;8.30;99.90;;;;;;5028522;28;20503;-77
2022/01/10 11:26:21;;;;;;;1.13;0.82;;;8.20;99.90;;;;;;5027322;28;20146;-78
2022/01/10 11:28:55;;;;;;;1.00;0.80;;;8.20;99.90;;;;;;5021105;28;20080;-78
2022/01/10 11:31:24;;;;;;;0.88;0.80;;;8.20;99.90;;;;;;5024050;28;20068;-79
2022/01/10 11:33:51;;;;;;;1.25;1.00;;;8.10;99.90;;;;;;5026736;28;20057;-78
2022/01/10 11:36:21;;;;;;;1.13;0.80;;;8.10;99.90;;;;;;5028402;28;20032;-78
2022/01/10 11:38:58;;;;;;;0.70;0.60;;;8.10;99.90;;;;;;5026174;28;20047;-78
2022/01/10 11:41:31;;;;;;;1.35;1.00;;;8.10;99.90;;;;;;5026162;28;20025;-79
2022/01/10 11:44:12;;;;;;;1.25;1.15;;;8.10;99.90;;;;;;5020918;28;20026;-78
2022/01/10 11:46:48;;;;;;;0.80;0.80;;;8.10;99.90;;;;;;5022827;28;20419;-78
2022/01/10 11:49:21;;;;;;;0.90;0.75;;;8.10;99.90;;;;;;5026853;28;20022;-78
2022/01/10 11:51:50;;;;;;;1.02;0.93;;;8.10;99.90;;;;;;5024288;28;20099;-78
2022/01/10 11:54:34;;;;;;;1.20;0.80;;;8.00;99.90;;;;;;5028610;28;20075;-79
2022/01/10 11:57:18;;;;;;;0.63;0.60;;;8.00;99.90;;;;;;5025788;28;20040;-78
2022/01/10 11:59:56;;;;;;;1.10;1.00;;;8.00;99.90;;;;;;5024570;28;20038;-78
2022/01/10 12:02:25;;;;;;;2.20;0.82;;;8.00;99.90;;;;;;5025852;28;20026;-79
2022/01/10 12:05:02;;;;;;;1.00;0.85;;;8.00;99.90;;;;;;5024971;28;20037;-78
2022/01/10 12:07:29;;;;;;;1.60;0.70;;;8.10;99.90;;;;;;5025821;28;20108;-78
2022/01/10 12:09:56;;;;;;;0.68;0.57;;;8.10;99.90;;;;;;5026648;28;20032;-78
2022/01/10 12:12:29;;;;;;;0.77;0.70;;;8.10;99.90;;;;;;5026958;28;20521;-78
2022/01/10 12:14:56;;;;;;;0.57;0.57;;;8.00;99.90;;;;;;5027523;28;20205;-79
2022/01/10 12:17:22;;;;;;;1.05;0.80;;;8.00;99.90;;;;;;5026566;28;20051;-79
2022/01/10 12:19:48;;;;;;;0.73;0.73;;;8.00;99.90;;;;;;5020617;28;20499;-78
2022/01/10 12:22:14;;;;;;;0.80;0.80;;;8.00;99.90;;;;;;5026233;28;20119;-78
2022/01/10 12:24:42;;;;;;;1.38;1.27;;;8.00;99.90;;;;;;5025106;28;20044;-78
2022/01/10 12:27:10;;;;;;;1.52;1.40;;;8.00;99.90;;;;;;5026816;28;20017;-78
2022/01/10 12:29:36;;;;;;;1.75;1.42;;;8.00;99.90;;;;;;5025823;28;20033;-78
2022/01/10 12:32:04;;;;;;;1.77;1.50;;;8.00;99.90;;;;;;5027620;28;20025;-78
2022/01/10 12:34:30;;;;;;;2.17;1.55;;;8.00;99.90;;;;;;5029534;28;20498;-78
2022/01/10 12:36:56;;;;;;;1.63;1.52;;;8.00;99.90;;;;;;5029458;28;20116;-78
2022/01/10 12:39:28;;;;;;;2.00;1.80;;;7.90;99.90;;;;;;5028452;28;20511;-78
2022/01/10 12:41:56;;;;;;;1.30;1.20;;;7.90;99.90;;;;;;5028604;28;20037;-78
2022/01/10 12:44:23;;;;;;;1.75;1.38;;;7.90;99.90;;;;;;5022442;28;20025;-78
2022/01/10 12:46:49;;;;;;;1.52;1.38;;;7.90;99.90;;;;;;5028908;28;20479;-78
2022/01/10 12:49:15;;;;;;;1.75;1.58;;;7.90;99.90;;;;;;5028638;28;20108;-78
2022/01/10 12:51:46;;;;;;;3.00;1.50;;;7.90;99.90;;;;;;5029347;28;20033;-79
2022/01/10 12:54:27;;;;;;;1.17;0.90;;;7.90;99.90;;;;;;5030867;28;20017;-78
2022/01/10 12:56:53;;;;;;;2.30;1.43;;;7.90;99.90;;;;;;5030237;28;20037;-78
2022/01/10 12:59:23;;;;;;;1.63;1.42;;;7.90;99.90;;;;;;5026058;28;20105;-79
2022/01/10 13:01:49;;;;;;;1.65;1.50;;;8.00;99.90;;;;;;5027989;28;20040;-78
2022/01/10 13:04:23;;;;;;;1.38;1.27;;;8.00;99.90;;;;;;5029008;28;20041;-78
2022/01/10 13:06:51;;;;;;;1.23;1.13;;;8.00;99.90;;;;;;5029550;28;20100;-77